Time;durP1;ratioP1;P1;durP2;ratioP2;P2;SDS_P1;SDS_P2;PMS_P1;PMS_P2;Temp;Humidity;BMP_temperature;BMP_pressure;BME280_temperature;BME280_humidity;BME280_pressure;Samples;Min_cycle;Max_cycle;Signal;HPM_P1;HPM_P2
2021/11/06 00:00:25;;;;;;;0.20;0.20;;;;;;;7.10;82.23;102879.06;5057583;28;20418;-66
2021/11/06 00:02:51;;;;;;;0.30;0.30;;;;;;;7.11;82.38;102880.88;5056548;28;20040;-66
2021/11/06 00:05:16;;;;;;;0.20;0.20;;;;;;;7.13;81.88;102883.59;5053106;28;20021;-66
2021/11/06 00:07:42;;;;;;;0.23;0.23;;;;;;;7.16;81.61;102878.63;5056597;28;20036;-66
2021/11/06 00:10:09;;;;;;;0.10;0.10;;;;;;;7.19;81.49;102880.53;5055481;28;20037;-67
2021/11/06 00:12:35;;;;;;;0.17;0.17;;;;;;;7.20;81.29;102875.47;5057217;28;20029;-66
2021/11/06 00:15:00;;;;;;;0.20;0.20;;;;;;;7.22;81.19;102876.47;5056721;28;20043;-66
2021/11/06 00:17:26;;;;;;;0.30;0.30;;;;;;;7.26;80.91;102875.94;5056822;28;20024;-66
2021/11/06 00:19:51;;;;;;;0.20;0.20;;;;;;;7.29;80.84;102877.88;5056864;28;20160;-66
2021/11/06 00:22:17;;;;;;;0.30;0.30;;;;;;;7.29;80.48;102878.75;5055893;28;20281;-65
2021/11/06 00:24:42;;;;;;;0.20;0.20;;;;;;;7.28;80.99;102879.53;5057230;28;20057;-66
2021/11/06 00:27:08;;;;;;;0.13;0.13;;;;;;;7.29;81.24;102883.06;5056397;28;20299;-67
2021/11/06 00:29:33;;;;;;;0.63;0.63;;;;;;;7.26;81.46;102882.81;5055797;28;20036;-65
2021/11/06 00:31:58;;;;;;;0.20;0.20;;;;;;;7.25;81.27;102879.34;5036209;28;20358;-67
2021/11/06 00:34:24;;;;;;;0.20;0.20;;;;;;;7.26;81.32;102878.53;5056022;28;20037;-65
2021/11/06 00:36:49;;;;;;;0.20;0.20;;;;;;;7.28;81.45;102886.44;5056443;28;20021;-66
2021/11/06 00:39:15;;;;;;;0.30;0.30;;;;;;;7.27;81.58;102882.03;5055734;28;20040;-66
2021/11/06 00:42:00;;;;;;;0.20;0.20;;;;;;;7.28;81.68;102883.84;5055872;28;20068;-66
2021/11/06 00:44:27;;;;;;;0.20;0.20;;;;;;;7.29;81.35;102881.34;5019994;28;20056;-66
2021/11/06 00:46:52;;;;;;;0.20;0.20;;;;;;;7.29;81.75;102883.97;5036234;28;20032;-67
2021/11/06 00:49:17;;;;;;;0.20;0.20;;;;;;;7.33;81.60;102879.88;5036514;28;20307;-66
2021/11/06 00:51:43;;;;;;;0.20;0.20;;;;;;;7.37;81.24;102875.81;5031575;28;20079;-65
2021/11/06 00:54:08;;;;;;;0.20;0.20;;;;;;;7.41;81.18;102875.25;5050274;28;20060;-66
2021/11/06 00:56:33;;;;;;;0.17;0.17;;;;;;;7.43;80.97;102879.75;5038177;28;20426;-65
2021/11/06 00:58:59;;;;;;;0.20;0.20;;;;;;;7.45;80.89;102873.75;5038724;28;20057;-65
2021/11/06 01:01:24;;;;;;;0.23;0.23;;;;;;;7.46;81.20;102878.19;5021458;28;20594;-66
2021/11/06 01:03:50;;;;;;;0.40;0.40;;;;;;;7.44;81.16;102875.47;5056479;28;20411;-66
2021/11/06 01:06:15;;;;;;;0.20;0.20;;;;;;;7.48;80.98;102874.00;5055840;28;20284;-65
2021/11/06 01:08:43;;;;;;;0.40;0.40;;;;;;;7.48;81.21;102871.38;5038801;28;20029;-66
2021/11/06 01:11:09;;;;;;;0.20;0.20;;;;;;;7.52;80.74;102870.81;5056407;28;20383;-66
2021/11/06 01:13:34;;;;;;;0.40;0.40;;;;;;;7.49;80.69;102870.59;5056757;28;20283;-65
2021/11/06 01:16:00;;;;;;;0.30;0.30;;;;;;;7.49;81.09;102866.31;5055953;28;20032;-65
2021/11/06 01:18:25;;;;;;;0.20;0.20;;;;;;;7.48;81.14;102866.19;5039002;28;20021;-64
2021/11/06 01:20:51;;;;;;;0.20;0.20;;;;;;;7.49;81.12;102857.56;5022540;28;20412;-64
2021/11/06 01:23:16;;;;;;;0.27;0.27;;;;;;;7.49;80.77;102863.69;5056133;28;20025;-66
2021/11/06 01:25:42;;;;;;;0.20;0.20;;;;;;;7.49;80.98;102857.56;5038703;28;20032;-66
2021/11/06 01:28:07;;;;;;;0.20;0.20;;;;;;;7.46;81.17;102867.78;5038889;28;20036;-67
2021/11/06 01:30:33;;;;;;;0.20;0.20;;;;;;;7.45;81.32;102860.72;5056403;28;20056;-66
2021/11/06 01:32:58;;;;;;;0.30;0.30;;;;;;;7.45;81.12;102861.63;5021950;28;20418;-66
2021/11/06 01:35:24;;;;;;;0.30;0.30;;;;;;;7.46;80.94;102862.56;5056520;28;20129;-66
2021/11/06 01:37:49;;;;;;;0.30;0.30;;;;;;;7.45;81.24;102864.25;5055948;28;20032;-66
2021/11/06 01:40:18;;;;;;;0.10;0.10;;;;;;;7.42;81.35;102862.31;5055287;28;20025;-66
2021/11/06 01:42:43;;;;;;;0.20;0.20;;;;;;;7.42;81.65;102858.81;5055168;28;20083;-67
2021/11/06 01:45:11;;;;;;;0.20;0.20;;;;;;;7.44;81.13;102854.63;5055097;28;20036;-67
2021/11/06 01:47:37;;;;;;;0.20;0.20;;;;;;;7.43;81.24;102858.91;5054873;28;20023;-69
2021/11/06 01:50:03;;;;;;;0.20;0.20;;;;;;;7.43;81.37;102855.41;5054630;28;20354;-67
2021/11/06 01:52:28;;;;;;;0.20;0.20;;;;;;;7.42;81.73;102853.59;5020006;28;20072;-66
2021/11/06 01:54:54;;;;;;;0.30;0.30;;;;;;;7.43;81.18;102852.81;5054589;28;20036;-67
2021/11/06 01:57:21;;;;;;;0.27;0.27;;;;;;;7.43;81.41;102858.03;5054738;28;20025;-67
2021/11/06 01:59:46;;;;;;;0.23;0.23;;;;;;;7.43;81.32;102855.41;5054893;28;20043;-66
2021/11/06 02:02:11;;;;;;;0.40;0.40;;;;;;;7.40;81.51;102853.47;5036461;28;20025;-67
2021/11/06 02:04:38;;;;;;;0.30;0.30;;;;;;;7.45;81.13;102848.59;5022472;28;20405;-67
2021/11/06 02:07:03;;;;;;;0.20;0.20;;;;;;;7.45;81.21;102859.03;5057983;28;20021;-67
2021/11/06 02:09:29;;;;;;;0.30;0.30;;;;;;;7.47;80.82;102851.34;5058307;28;20337;-64
2021/11/06 02:11:56;;;;;;;0.20;0.20;;;;;;;7.46;81.17;102846.91;5040672;28;20024;-66
2021/11/06 02:14:25;;;;;;;0.20;0.20;;;;;;;7.42;81.48;102841.47;5058003;28;20028;-67
2021/11/06 02:16:52;;;;;;;0.30;0.30;;;;;;;7.40;81.58;102843.06;5054903;28;20096;-67
2021/11/06 02:19:23;;;;;;;0.10;0.10;;;;;;;7.41;81.60;102842.25;5025113;28;20120;-66
2021/11/06 02:21:48;;;;;;;0.20;0.20;;;;;;;7.40;81.72;102837.84;5042083;28;20105;-66
2021/11/06 02:24:14;;;;;;;0.30;0.30;;;;;;;7.43;81.86;102845.88;5041702;28;20049;-65
2021/11/06 02:26:39;;;;;;;0.40;0.40;;;;;;;7.41;81.95;102839.66;5058427;28;20096;-67
2021/11/06 02:29:05;;;;;;;0.27;0.27;;;;;;;7.43;81.46;102831.97;5058202;28;20040;-66
2021/11/06 02:31:30;;;;;;;0.20;0.20;;;;;;;7.45;81.84;102848.59;5055465;28;20021;-65
2021/11/06 02:33:56;;;;;;;0.20;0.20;;;;;;;7.42;82.25;102840.56;5056747;28;20064;-66
2021/11/06 02:36:21;;;;;;;0.10;0.10;;;;;;;7.42;82.04;102849.28;5039556;28;20032;-68
2021/11/06 02:38:47;;;;;;;0.20;0.20;;;;;;;7.47;81.92;102847.00;5057350;28;20028;-67
2021/11/06 02:41:13;;;;;;;0.20;0.20;;;;;;;7.48;82.19;102845.31;5055068;28;20059;-66
2021/11/06 02:43:38;;;;;;;0.17;0.17;;;;;;;7.46;82.53;102842.59;5040401;28;20079;-66
2021/11/06 02:46:04;;;;;;;0.20;0.20;;;;;;;7.47;82.38;102848.72;5039547;28;20036;-65
2021/11/06 02:48:33;;;;;;;0.20;0.20;;;;;;;7.53;82.28;102846.56;5057522;28;20021;-67
2021/11/06 02:51:04;;;;;;;0.10;0.10;;;;;;;7.52;82.40;102845.66;5056454;28;20025;-68
2021/11/06 02:53:29;;;;;;;0.10;0.10;;;;;;;7.52;82.40;102839.53;5057816;28;20027;-69
2021/11/06 02:55:54;;;;;;;0.73;0.23;;;;;;;7.54;82.63;102832.75;5057141;28;20336;-67
2021/11/06 02:58:20;;;;;;;0.10;0.10;;;;;;;7.54;82.22;102841.44;5057038;28;20033;-67
2021/11/06 03:00:45;;;;;;;0.10;0.10;;;;;;;7.58;82.63;102849.50;5022881;28;20083;-65
2021/11/06 03:03:10;;;;;;;0.10;0.10;;;;;;;7.56;83.18;102839.84;5038612;28;20039;-65
2021/11/06 03:05:36;;;;;;;0.10;0.10;;;;;;;7.55;83.24;102840.66;5058699;28;20055;-65
2021/11/06 03:08:01;;;;;;;0.20;0.20;;;;;;;7.54;83.46;102840.56;5040762;28;20115;-65
2021/11/06 03:10:27;;;;;;;0.40;0.40;;;;;;;7.54;83.59;102843.16;5058320;28;20071;-66
2021/11/06 03:12:52;;;;;;;0.10;0.10;;;;;;;7.54;83.98;102849.28;5058312;28;20033;-65
2021/11/06 03:15:19;;;;;;;0.10;0.10;;;;;;;7.53;83.81;102841.38;5041213;28;20025;-66
2021/11/06 03:17:44;;;;;;;0.23;0.23;;;;;;;7.53;84.04;102844.84;5040538;28;20105;-64
2021/11/06 03:20:11;;;;;;;0.10;0.10;;;;;;;7.55;84.18;102840.66;5057728;28;20358;-64
2021/11/06 03:22:36;;;;;;;0.10;0.10;;;;;;;7.58;83.47;102837.38;5058552;28;20052;-64
2021/11/06 03:25:04;;;;;;;0.20;0.20;;;;;;;7.60;84.01;102837.50;5040864;28;20064;-64
2021/11/06 03:27:29;;;;;;;0.13;0.13;;;;;;;7.58;83.99;102832.16;5041134;28;20050;-65
2021/11/06 03:29:55;;;;;;;0.13;0.13;;;;;;;7.58;84.68;102831.25;5040394;28;20473;-63
2021/11/06 03:32:21;;;;;;;0.20;0.20;;;;;;;7.62;84.21;102838.50;5057102;28;20056;-64
2021/11/06 03:34:46;;;;;;;0.10;0.10;;;;;;;7.62;84.35;102835.88;5057944;28;20031;-64
2021/11/06 03:37:12;;;;;;;0.00;0.00;;;;;;;7.62;83.94;102828.06;5056964;28;20144;-64
2021/11/06 03:39:38;;;;;;;0.50;0.50;;;;;;;7.64;84.09;102827.38;5057910;28;20115;-64
2021/11/06 03:42:04;;;;;;;0.20;0.20;;;;;;;7.62;84.30;102826.38;5056783;28;20060;-64
2021/11/06 03:44:30;;;;;;;0.20;0.20;;;;;;;7.65;84.35;102823.09;5057504;28;20040;-64
2021/11/06 03:46:55;;;;;;;0.40;0.40;;;;;;;7.64;84.46;102822.19;5057219;28;20029;-64
2021/11/06 03:49:21;;;;;;;0.20;0.20;;;;;;;7.65;84.54;102816.16;5058020;28;20025;-64
2021/11/06 03:51:46;;;;;;;0.20;0.20;;;;;;;7.65;84.54;102817.88;5057545;28;20029;-63
2021/11/06 03:54:11;;;;;;;0.27;0.27;;;;;;;7.65;84.58;102816.16;5040301;28;20269;-63
2021/11/06 03:56:37;;;;;;;0.20;0.20;;;;;;;7.69;84.57;102815.59;5057712;28;20104;-64
2021/11/06 03:59:03;;;;;;;0.10;0.10;;;;;;;7.68;84.76;102813.75;5056719;28;20056;-64
2021/11/06 04:01:28;;;;;;;0.10;0.10;;;;;;;7.68;84.52;102815.47;5056910;28;20399;-64
2021/11/06 04:03:53;;;;;;;0.10;0.10;;;;;;;7.68;84.88;102807.66;5022927;28;20032;-64
2021/11/06 04:06:19;;;;;;;0.20;0.20;;;;;;;7.69;84.88;102805.16;5057452;28;20057;-64
2021/11/06 04:08:44;;;;;;;0.20;0.20;;;;;;;7.74;84.85;102817.63;5056474;28;20072;-64
2021/11/06 04:11:10;;;;;;;0.10;0.10;;;;;;;7.74;84.62;102808.09;5057239;28;20064;-64
2021/11/06 04:13:36;;;;;;;0.10;0.10;;;;;;;7.76;84.84;102809.09;5039133;28;20277;-64
2021/11/06 04:16:01;;;;;;;0.10;0.10;;;;;;;7.79;84.82;102811.03;5056806;28;20388;-64
2021/11/06 04:18:27;;;;;;;0.20;0.20;;;;;;;7.80;84.75;102813.72;5040002;28;20086;-65
2021/11/06 04:20:52;;;;;;;0.13;0.13;;;;;;;7.81;84.81;102820.78;5039609;28;20068;-65
2021/11/06 04:23:18;;;;;;;0.20;0.20;;;;;;;7.81;84.96;102818.19;5057148;28;20032;-65
2021/11/06 04:25:45;;;;;;;0.10;0.10;;;;;;;7.82;84.88;102817.38;5023035;28;20074;-64
2021/11/06 04:28:11;;;;;;;0.20;0.20;;;;;;;7.83;84.54;102829.63;5056382;28;20383;-64
2021/11/06 04:30:36;;;;;;;0.20;0.20;;;;;;;7.85;84.72;102832.34;5056503;28;20395;-66
2021/11/06 04:33:02;;;;;;;0.20;0.20;;;;;;;7.88;84.66;102829.03;5038968;28;20159;-65
2021/11/06 04:35:27;;;;;;;0.10;0.10;;;;;;;7.86;84.28;102828.94;5057163;28;20265;-65
2021/11/06 04:37:53;;;;;;;0.10;0.10;;;;;;;7.89;84.54;102833.44;5056812;28;20055;-67
2021/11/06 04:40:18;;;;;;;0.10;0.10;;;;;;;7.88;84.42;102835.16;5038303;28;20072;-66
2021/11/06 04:42:43;;;;;;;0.10;0.10;;;;;;;7.92;84.13;102828.47;5039614;28;20044;-66
2021/11/06 04:45:10;;;;;;;0.10;0.10;;;;;;;7.92;84.55;102820.63;5056637;28;20379;-67
2021/11/06 04:47:36;;;;;;;0.30;0.30;;;;;;;7.98;84.15;102823.69;5039330;28;20017;-65
2021/11/06 04:50:04;;;;;;;0.23;0.23;;;;;;;7.98;84.10;102821.09;5056702;28;20296;-72
2021/11/06 04:52:29;;;;;;;0.37;0.37;;;;;;;7.96;83.91;102823.56;5056786;28;20101;-67
2021/11/06 04:54:55;;;;;;;0.10;0.10;;;;;;;7.97;83.77;102817.56;5056774;28;20028;-66
2021/11/06 04:57:21;;;;;;;0.23;0.23;;;;;;;7.95;83.51;102811.31;5056579;28;20040;-65
2021/11/06 04:59:46;;;;;;;0.20;0.20;;;;;;;7.98;83.73;102806.31;5039317;28;20032;-66
2021/11/06 05:02:12;;;;;;;0.10;0.10;;;;;;;7.95;83.75;102811.31;5055126;28;20029;-65
2021/11/06 05:04:37;;;;;;;0.10;0.10;;;;;;;7.96;83.44;102805.31;5039505;28;20371;-66
2021/11/06 05:07:06;;;;;;;0.10;0.10;;;;;;;7.94;83.60;102809.53;5056508;28;20056;-65
2021/11/06 05:09:31;;;;;;;0.10;0.10;;;;;;;7.95;83.49;102800.91;5056729;28;20106;-64
2021/11/06 05:11:57;;;;;;;0.20;0.20;;;;;;;7.95;83.46;102799.97;5039039;28;20119;-65
2021/11/06 05:14:22;;;;;;;0.10;0.10;;;;;;;7.94;83.70;102798.16;5056093;28;20052;-66
2021/11/06 05:16:48;;;;;;;0.20;0.20;;;;;;;7.93;84.25;102812.00;5056256;28;20036;-65
2021/11/06 05:19:14;;;;;;;0.13;0.13;;;;;;;7.94;83.87;102813.81;5056074;28;20035;-65
2021/11/06 05:21:41;;;;;;;0.10;0.10;;;;;;;7.95;83.46;102810.41;5056551;28;20029;-68
2021/11/06 05:24:07;;;;;;;0.20;0.20;;;;;;;7.94;83.69;102809.53;5056562;28;20044;-66
2021/11/06 05:26:34;;;;;;;0.23;0.23;;;;;;;7.94;83.50;102808.59;5056605;28;20310;-65
2021/11/06 05:29:02;;;;;;;0.07;0.07;;;;;;;7.96;83.52;102822.66;5038789;28;20384;-66
2021/11/06 05:31:27;;;;;;;0.10;0.10;;;;;;;7.97;82.86;102822.78;5038476;28;20398;-65
2021/11/06 05:33:52;;;;;;;0.20;0.20;;;;;;;7.96;83.31;102814.81;5038948;28;20041;-65
2021/11/06 05:36:18;;;;;;;0.10;0.10;;;;;;;7.94;83.34;102819.03;5039231;28;20035;-65
2021/11/06 05:38:46;;;;;;;0.50;0.50;;;;;;;7.94;83.68;102825.19;5056457;28;20119;-66
2021/11/06 05:41:11;;;;;;;0.20;0.20;;;;;;;7.93;83.56;102820.75;5026212;28;20063;-66
2021/11/06 05:43:36;;;;;;;0.20;0.20;;;;;;;7.92;83.19;102812.81;5060407;28;20328;-65
2021/11/06 05:46:01;;;;;;;0.20;0.20;;;;;;;7.94;83.14;102813.81;5059877;28;20318;-66
2021/11/06 05:48:27;;;;;;;0.10;0.10;;;;;;;7.92;83.39;102805.88;5059766;28;20036;-66
2021/11/06 05:50:52;;;;;;;0.20;0.20;;;;;;;7.90;83.34;102809.19;5042711;28;20070;-67
2021/11/06 05:53:18;;;;;;;0.20;0.20;;;;;;;7.94;83.23;102799.09;5060052;28;20031;-65
2021/11/06 05:55:43;;;;;;;0.20;0.20;;;;;;;7.92;83.14;102805.88;5060054;28;20020;-65
2021/11/06 05:58:08;;;;;;;0.10;0.10;;;;;;;7.92;83.15;102812.81;5041801;28;20460;-65
2021/11/06 06:00:35;;;;;;;0.10;0.10;;;;;;;7.94;83.17;102806.00;5060114;28;20414;-65
2021/11/06 06:03:00;;;;;;;0.17;0.17;;;;;;;7.93;83.37;102812.00;5041350;28;20043;-65
2021/11/06 06:05:26;;;;;;;0.10;0.10;;;;;;;7.92;82.85;102803.25;5042499;28;20403;-66
2021/11/06 06:07:51;;;;;;;0.10;0.10;;;;;;;7.94;83.70;102801.69;5042275;28;20092;-64
2021/11/06 06:10:17;;;;;;;0.10;0.10;;;;;;;7.92;83.37;102794.56;5054046;28;20390;-66
2021/11/06 06:12:44;;;;;;;0.10;0.10;;;;;;;7.92;83.35;102804.97;5041802;28;20028;-65
2021/11/06 06:15:10;;;;;;;0.20;0.20;;;;;;;7.91;83.25;102797.97;5059575;28;20028;-66
2021/11/06 06:17:37;;;;;;;0.30;0.30;;;;;;;7.92;83.32;102797.16;5059244;28;20051;-65
2021/11/06 06:20:05;;;;;;;0.10;0.10;;;;;;;7.91;83.15;102791.03;5059086;28;20024;-66
2021/11/06 06:22:30;;;;;;;0.20;0.20;;;;;;;7.93;83.04;102794.66;5058949;28;20130;-66
2021/11/06 06:24:55;;;;;;;0.13;0.13;;;;;;;7.91;83.11;102791.03;5041650;28;20124;-64
2021/11/06 06:27:21;;;;;;;0.13;0.13;;;;;;;7.91;83.13;102793.63;5059144;28;20052;-64
2021/11/06 06:29:46;;;;;;;0.17;0.17;;;;;;;7.92;83.15;102794.56;5058619;28;20040;-65
2021/11/06 06:32:11;;;;;;;0.20;0.20;;;;;;;7.93;83.32;102798.97;5058625;28;20057;-64
2021/11/06 06:34:37;;;;;;;0.10;0.10;;;;;;;7.92;82.81;102798.03;5041990;28;20314;-64
2021/11/06 06:37:02;;;;;;;0.17;0.17;;;;;;;7.92;83.30;102791.94;5058867;28;20029;-64
2021/11/06 06:39:28;;;;;;;0.20;0.20;;;;;;;7.93;83.42;102798.97;5058115;28;20288;-64
2021/11/06 06:41:53;;;;;;;0.20;0.20;;;;;;;7.91;83.31;102805.78;5057869;28;20068;-64
2021/11/06 06:44:18;;;;;;;0.20;0.20;;;;;;;7.86;83.53;102802.84;5059198;28;20025;-65
2021/11/06 06:46:44;;;;;;;0.20;0.20;;;;;;;7.86;83.06;102802.84;5041207;28;20132;-64
2021/11/06 06:49:09;;;;;;;0.10;0.10;;;;;;;7.87;83.45;102806.34;5041443;28;20021;-65
2021/11/06 06:51:35;;;;;;;0.20;0.20;;;;;;;7.90;83.18;102798.75;5058334;28;20067;-65
2021/11/06 06:54:00;;;;;;;0.10;0.10;;;;;;;7.87;83.47;102796.84;5041399;28;20025;-65
2021/11/06 06:56:25;;;;;;;0.20;0.20;;;;;;;7.88;83.35;102803.84;5058576;28;20032;-65
2021/11/06 06:58:51;;;;;;;0.20;0.20;;;;;;;7.87;83.33;102788.09;5040415;28;20064;-66
2021/11/06 07:01:16;;;;;;;0.10;0.10;;;;;;;7.91;83.29;102792.75;5040789;28;20788;-65
2021/11/06 07:03:41;;;;;;;0.23;0.23;;;;;;;7.92;83.43;102797.16;5058681;28;20386;-66
2021/11/06 07:06:07;;;;;;;0.20;0.20;;;;;;;7.91;83.51;102795.34;5058531;28;20024;-65
2021/11/06 07:08:33;;;;;;;0.10;0.10;;;;;;;7.94;83.44;102793.88;5058640;28;20293;-66
2021/11/06 07:10:58;;;;;;;0.13;0.13;;;;;;;7.95;83.17;102798.28;5058061;28;20441;-66
2021/11/06 07:13:24;;;;;;;0.10;0.10;;;;;;;8.00;83.25;102800.28;5041253;28;20025;-66
2021/11/06 07:15:50;;;;;;;0.10;0.10;;;;;;;8.01;82.94;102809.94;5057965;28;20117;-65
2021/11/06 07:18:16;;;;;;;0.20;0.20;;;;;;;8.01;82.88;102809.94;5057890;28;20119;-66
2021/11/06 07:20:42;;;;;;;0.17;0.17;;;;;;;8.00;83.24;102810.72;5058431;28;20013;-65
2021/11/06 07:23:11;;;;;;;0.17;0.17;;;;;;;8.02;82.92;102810.03;5057972;28;20098;-64
2021/11/06 07:25:36;;;;;;;0.27;0.27;;;;;;;8.02;83.05;102809.16;5040816;28;20029;-65
2021/11/06 07:28:02;;;;;;;0.20;0.20;;;;;;;8.05;82.72;102809.38;5040319;28;20425;-65
2021/11/06 07:30:27;;;;;;;0.13;0.13;;;;;;;8.09;82.30;102809.69;5057626;28;20031;-65
2021/11/06 07:32:53;;;;;;;0.20;0.20;;;;;;;8.10;82.73;102814.09;5056254;28;20037;-66
2021/11/06 07:35:20;;;;;;;0.20;0.20;;;;;;;8.17;82.34;102817.16;5057600;28;20283;-65
2021/11/06 07:37:46;;;;;;;0.20;0.20;;;;;;;8.17;82.01;102804.09;5057966;28;20033;-65
2021/11/06 07:40:12;;;;;;;0.20;0.20;;;;;;;8.18;82.34;102812.03;5056690;28;20032;-65
2021/11/06 07:42:39;;;;;;;0.20;0.20;;;;;;;8.17;82.29;102799.78;5057094;28;20465;-65
2021/11/06 07:45:06;;;;;;;0.10;0.10;;;;;;;8.19;82.13;102798.19;5058004;28;20035;-65
2021/11/06 07:47:31;;;;;;;0.20;0.20;;;;;;;8.17;82.09;102797.19;5057833;28;20072;-65
2021/11/06 07:49:57;;;;;;;0.20;0.20;;;;;;;8.18;82.22;102801.59;5056179;28;20351;-65
2021/11/06 07:52:22;;;;;;;0.30;0.30;;;;;;;8.19;82.22;102800.81;5058077;28;20025;-65
2021/11/06 07:54:48;;;;;;;0.20;0.20;;;;;;;8.16;82.38;102803.19;5057705;28;20035;-65
2021/11/06 07:57:13;;;;;;;0.20;0.20;;;;;;;8.14;82.50;102798.69;5040215;28;20024;-65
2021/11/06 07:59:39;;;;;;;0.17;0.17;;;;;;;8.12;82.33;102795.94;5057461;28;20299;-65
2021/11/06 08:02:04;;;;;;;0.40;0.40;;;;;;;8.13;82.07;102783.78;5038773;28;20037;-66
2021/11/06 08:04:29;;;;;;;0.10;0.10;;;;;;;8.12;81.77;102790.72;5039958;28;20430;-66
2021/11/06 08:06:55;;;;;;;0.10;0.10;;;;;;;8.12;82.07;102788.13;5056856;28;20024;-66
2021/11/06 08:09:21;;;;;;;0.20;0.20;;;;;;;8.14;82.08;102796.94;5057244;28;20382;-65
2021/11/06 08:11:46;;;;;;;0.20;0.20;;;;;;;8.13;82.39;102797.75;5057444;28;20406;-66
2021/11/06 08:14:11;;;;;;;0.20;0.20;;;;;;;8.18;81.75;102791.16;5057012;28;20020;-66
2021/11/06 08:16:37;;;;;;;0.40;0.40;;;;;;;8.24;81.23;102798.50;5038246;28;20033;-66
2021/11/06 08:19:02;;;;;;;0.17;0.17;;;;;;;8.26;81.56;102802.13;5038766;28;20040;-67
2021/11/06 08:21:28;;;;;;;0.17;0.17;;;;;;;8.30;81.09;102790.19;5045764;28;20066;-65
2021/11/06 08:23:53;;;;;;;0.20;0.20;;;;;;;8.29;81.55;102794.50;5039559;28;20040;-66
2021/11/06 08:26:18;;;;;;;0.30;0.30;;;;;;;8.32;80.98;102799.03;5038961;28;20027;-68
2021/11/06 08:28:44;;;;;;;0.20;0.20;;;;;;;8.34;80.95;102798.34;5055443;28;20037;-65
2021/11/06 08:31:09;;;;;;;0.20;0.20;;;;;;;8.34;81.41;102795.72;5054691;28;20126;-65
2021/11/06 08:33:35;;;;;;;0.37;0.37;;;;;;;8.35;80.98;102794.91;5056126;28;20106;-68
2021/11/06 08:36:01;;;;;;;0.20;0.20;;;;;;;8.37;80.97;102789.81;5054287;28;20021;-68
2021/11/06 08:38:27;;;;;;;0.30;0.30;;;;;;;8.43;80.68;102797.16;5037340;28;20028;-66
2021/11/06 08:40:53;;;;;;;0.30;0.30;;;;;;;8.47;80.28;102794.84;5036397;28;20044;-65
2021/11/06 08:43:19;;;;;;;0.30;0.30;;;;;;;8.51;80.41;102791.69;5038213;28;20032;-67
2021/11/06 08:45:46;;;;;;;0.20;0.20;;;;;;;8.54;79.98;102798.84;5055227;28;20025;-65
2021/11/06 08:48:11;;;;;;;0.40;0.40;;;;;;;8.58;80.29;102799.97;5055003;28;20197;-64
2021/11/06 08:50:37;;;;;;;0.30;0.30;;;;;;;8.60;79.98;102798.34;5038711;28;20486;-67
2021/11/06 08:53:03;;;;;;;0.40;0.40;;;;;;;8.67;79.65;102795.34;5055324;28;20055;-66
2021/11/06 08:55:28;;;;;;;0.20;0.20;;;;;;;8.72;79.73;102795.66;5019971;28;20025;-67
2021/11/06 08:57:54;;;;;;;0.20;0.20;;;;;;;8.75;79.88;102798.47;5054891;28;20029;-67
2021/11/06 09:00:33;;;;;;;0.40;0.40;;;;;;;8.76;79.47;102792.44;5039212;28;20035;-67
2021/11/06 09:03:02;;;;;;;0.10;0.10;;;;;;;8.77;80.06;102796.84;5038550;28;20017;-66
2021/11/06 09:05:31;;;;;;;0.20;0.20;;;;;;;8.77;80.26;102792.56;5021533;28;20032;-68
2021/11/06 09:07:58;;;;;;;0.30;0.30;;;;;;;8.83;79.44;102789.44;5019293;28;20025;-67
2021/11/06 09:10:24;;;;;;;0.33;0.33;;;;;;;8.82;80.06;102789.34;5052435;28;20032;-67
2021/11/06 09:12:50;;;;;;;0.30;0.30;;;;;;;8.82;79.69;102785.03;5056902;28;20078;-68
2021/11/06 09:15:16;;;;;;;0.70;0.70;;;;;;;8.84;79.44;102782.53;5046279;28;20120;-65
2021/11/06 09:17:42;;;;;;;0.20;0.20;;;;;;;8.84;79.66;102778.19;5055657;28;20036;-67
2021/11/06 09:20:08;;;;;;;0.20;0.20;;;;;;;8.86;79.87;102776.59;5041651;28;20021;-67
2021/11/06 09:22:35;;;;;;;0.30;0.30;;;;;;;8.87;79.77;102774.88;5059955;28;20311;-66
2021/11/06 09:25:00;;;;;;;0.33;0.33;;;;;;;8.89;79.55;102773.25;5060603;28;20036;-65
2021/11/06 09:27:26;;;;;;;0.30;0.30;;;;;;;8.90;79.91;102765.53;5042048;28;20021;-65
2021/11/06 09:29:51;;;;;;;0.40;0.40;;;;;;;8.94;79.20;102777.09;5042567;28;20272;-67
2021/11/06 09:32:17;;;;;;;0.20;0.20;;;;;;;8.97;78.89;102769.44;5041941;28;20063;-68
2021/11/06 09:34:42;;;;;;;0.30;0.30;;;;;;;9.03;78.95;102776.81;5042374;28;20099;-68
2021/11/06 09:37:08;;;;;;;0.20;0.20;;;;;;;9.06;78.15;102770.06;5059435;28;20075;-68
2021/11/06 09:39:35;;;;;;;0.33;0.33;;;;;;;9.10;78.02;102779.03;5059806;28;20048;-66
2021/11/06 09:42:02;;;;;;;0.30;0.30;;;;;;;9.07;78.00;102777.09;5058805;28;20061;-65
2021/11/06 09:44:30;;;;;;;0.33;0.33;;;;;;;9.03;78.66;102776.81;5046457;28;20386;-66
2021/11/06 09:46:57;;;;;;;0.30;0.30;;;;;;;9.01;78.13;102776.69;5041489;28;20434;-67
2021/11/06 09:49:24;;;;;;;0.20;0.20;;;;;;;9.02;77.31;102769.78;5059664;28;20039;-68
2021/11/06 09:51:50;;;;;;;0.43;0.43;;;;;;;9.03;78.09;102767.25;5042570;28;20055;-73
2021/11/06 09:54:16;;;;;;;0.20;0.20;;;;;;;9.01;78.38;102770.56;5059957;28;20363;-66
2021/11/06 09:56:42;;;;;;;0.20;0.20;;;;;;;9.05;77.50;102770.84;5058914;28;20033;-69
2021/11/06 09:59:07;;;;;;;0.23;0.23;;;;;;;9.10;77.19;102773.78;5059922;28;20299;-69
2021/11/06 10:01:33;;;;;;;0.57;0.57;;;;;;;9.11;77.27;102778.22;5059418;28;20070;-66
2021/11/06 10:04:00;;;;;;;0.33;0.33;;;;;;;9.10;77.48;102773.78;5059618;28;20344;-68
2021/11/06 10:06:27;;;;;;;0.20;0.20;;;;;;;9.03;77.86;102767.25;5059987;28;20379;-69
2021/11/06 10:08:54;;;;;;;0.30;0.30;;;;;;;9.05;77.43;102776.06;5038121;28;20285;-69
2021/11/06 10:11:22;;;;;;;0.30;0.30;;;;;;;8.98;77.57;102763.44;5038544;28;20036;-67
2021/11/06 10:13:54;;;;;;;0.40;0.40;;;;;;;8.90;78.29;102756.81;5059834;28;20352;-68
2021/11/06 10:16:43;;;;;;;0.37;0.37;;;;;;;8.90;77.97;102759.41;5059508;28;20032;-66
2021/11/06 10:19:16;;;;;;;0.30;0.30;;;;;;;8.89;78.34;102760.19;5058053;28;20043;-66
2021/11/06 10:21:44;;;;;;;0.20;0.20;;;;;;;8.92;77.74;102761.31;5059718;28;20145;-68
2021/11/06 10:24:10;;;;;;;0.40;0.40;;;;;;;8.94;77.70;102753.56;5058992;28;20057;-67
2021/11/06 10:26:37;;;;;;;0.30;0.30;;;;;;;8.95;77.98;102763.22;5041593;28;20114;-67
2021/11/06 10:29:08;;;;;;;1.00;1.00;;;;;;;8.99;77.86;102769.56;5041074;28;20032;-66
2021/11/06 10:31:55;;;;;;;0.20;0.20;;;;;;;8.97;77.72;102752.88;5059019;28;20068;-69
2021/11/06 10:34:21;;;;;;;;;;;;;;;8.96;77.61;102759.78;5042774;28;20299;-67
2021/11/06 10:36:59;;;;;;;0.40;0.40;;;;;;;8.92;78.24;102756.06;5058856;28;19920;-66
2021/11/06 10:39:25;;;;;;;0.40;0.40;;;;;;;8.97;77.94;102756.38;5035849;28;20288;-66
2021/11/06 10:41:50;;;;;;;0.40;0.40;;;;;;;9.03;77.79;102756.78;5036800;28;20040;-68
2021/11/06 10:44:19;;;;;;;0.40;0.40;;;;;;;9.02;77.86;102756.72;5058216;28;20383;-70
2021/11/06 10:46:52;;;;;;;0.40;0.40;;;;;;;9.10;77.52;102755.50;5058063;28;20025;-71
2021/11/06 10:49:37;;;;;;;0.20;0.20;;;;;;;9.21;77.05;102758.78;5059149;28;20021;-69
2021/11/06 10:52:11;;;;;;;0.40;0.40;;;;;;;9.21;77.19;102751.84;5057910;28;20033;-69
2021/11/06 10:54:59;;;;;;;0.40;0.40;;;;;;;9.25;77.13;102741.59;5059259;28;20040;-67
2021/11/06 10:57:25;;;;;;;0.30;0.30;;;;;;;9.30;77.22;102740.19;5058792;28;20044;-67
2021/11/06 11:00:14;;;;;;;0.20;0.20;;;;;;;9.36;77.38;102730.13;5058274;28;20025;-67
2021/11/06 11:02:40;;;;;;;0.30;0.30;;;;;;;9.48;76.81;102733.50;5056576;28;20048;-68
2021/11/06 11:05:31;;;;;;;0.60;0.60;;;;;;;9.55;76.78;102726.03;5040707;28;20025;-67
2021/11/06 11:08:10;;;;;;;0.40;0.40;;;;;;;9.60;76.65;102724.63;5052871;28;20025;-67
2021/11/06 11:10:38;;;;;;;0.50;0.50;;;;;;;9.72;76.67;102721.88;5056038;28;20039;-66
2021/11/06 11:13:10;;;;;;;0.40;0.40;;;;;;;9.80;75.92;102720.63;5057866;28;20041;-67
2021/11/06 11:15:36;;;;;;;0.30;0.30;;;;;;;9.81;76.09;102713.66;5058467;28;20044;-66
2021/11/06 11:18:01;;;;;;;1.90;1.80;;;;;;;9.85;76.38;102708.72;5057182;28;20025;-70
2021/11/06 11:20:32;;;;;;;0.50;0.50;;;;;;;9.90;75.85;102699.44;5057305;28;20075;-70
2021/11/06 11:23:27;;;;;;;0.50;0.50;;;;;;;9.95;76.32;102694.50;5039895;28;20052;-69
2021/11/06 11:25:52;;;;;;;0.30;0.30;;;;;;;9.98;75.77;102688.53;5024201;28;20087;-66
2021/11/06 11:28:18;;;;;;;0.50;0.50;;;;;;;10.01;75.31;102691.34;5057998;28;20033;-70
2021/11/06 11:30:43;;;;;;;0.40;0.40;;;;;;;9.98;75.74;102673.75;5021197;28;20064;-70